createdAt,value
2022-08-16T00:02:01.028Z,80.50
2022-08-16T00:04:28.208Z,80.50
2022-08-16T00:06:55.359Z,80.50
2022-08-16T00:09:22.351Z,80.40
2022-08-16T00:11:52.554Z,80.40
2022-08-16T00:14:21.843Z,80.40
2022-08-16T00:17:05.689Z,80.40
2022-08-16T00:19:42.778Z,80.40
2022-08-16T00:22:13.562Z,80.50
2022-08-16T00:24:44.555Z,80.30
2022-08-16T00:27:11.836Z,80.30
2022-08-16T00:29:38.914Z,80.30
2022-08-16T00:32:10.906Z,80.30
2022-08-16T00:34:44.988Z,80.40
2022-08-16T00:37:20.913Z,80.50
2022-08-16T00:39:57.217Z,80.40
2022-08-16T00:42:30.203Z,80.40
2022-08-16T00:45:25.126Z,80.30
2022-08-16T00:47:52.810Z,80.40
2022-08-16T00:50:35.897Z,80.30
2022-08-16T00:53:08.193Z,80.30
2022-08-16T00:55:37.676Z,80.20
2022-08-16T00:58:12.970Z,80.30
2022-08-16T01:00:43.512Z,80.30
2022-08-16T01:03:12.619Z,80.20
2022-08-16T01:05:39.772Z,80.30
2022-08-16T01:08:34.850Z,80.30
2022-08-16T01:10:55.270Z,80.20
2022-08-16T01:13:28.381Z,80.30
2022-08-16T01:16:10.855Z,80.30
2022-08-16T01:18:45.414Z,80.30
2022-08-16T01:21:22.372Z,80.40
2022-08-16T01:23:58.685Z,80.40
2022-08-16T01:26:34.382Z,80.50
2022-08-16T01:29:06.475Z,80.40
2022-08-16T01:31:42.449Z,80.40
2022-08-16T01:34:24.917Z,80.40
2022-08-16T01:36:58.308Z,80.40
2022-08-16T01:39:25.223Z,80.40
2022-08-16T01:41:53.148Z,80.40
2022-08-16T01:44:20.267Z,80.20
2022-08-16T01:46:47.969Z,80.40
2022-08-16T01:49:42.915Z,80.40
2022-08-16T01:52:28.027Z,80.30
2022-08-16T01:54:57.480Z,80.40
2022-08-16T01:57:24.710Z,80.60
2022-08-16T01:59:54.653Z,80.30
2022-08-16T02:02:27.413Z,80.30
2022-08-16T02:04:55.985Z,80.20
2022-08-16T02:07:24.643Z,80.30
2022-08-16T02:09:57.448Z,80.20
2022-08-16T02:12:50.655Z,80.20
2022-08-16T02:15:14.434Z,80.20
2022-08-16T02:17:41.267Z,80.10
2022-08-16T02:20:11.632Z,80.10
2022-08-16T02:22:38.703Z,80.20
2022-08-16T02:25:10.086Z,80.10
2022-08-16T02:27:37.487Z,80.20
2022-08-16T02:30:06.270Z,80.30
2022-08-16T02:33:02.405Z,80.10
2022-08-16T02:35:23.130Z,80.00
2022-08-16T02:37:52.454Z,80.10
2022-08-16T02:40:21.415Z,80.10
2022-08-16T02:42:50.039Z,79.90
2022-08-16T02:45:18.638Z,80.00
2022-08-16T02:48:00.468Z,79.90
2022-08-16T02:51:06.080Z,80.10
2022-08-16T02:53:14.394Z,80.10
2022-08-16T02:55:45.396Z,79.90
2022-08-16T02:58:17.263Z,80.00
2022-08-16T03:00:45.487Z,79.90
2022-08-16T03:03:17.982Z,79.90
2022-08-16T03:05:50.043Z,79.90
2022-08-16T03:08:52.469Z,79.90
2022-08-16T03:11:06.621Z,79.90
2022-08-16T03:13:44.562Z,79.80
2022-08-16T03:16:38.060Z,79.90
2022-08-16T03:19:01.676Z,80.00
2022-08-16T03:21:29.391Z,80.00
2022-08-16T03:24:28.265Z,79.80
2022-08-16T03:26:58.022Z,79.90
2022-08-16T03:29:27.420Z,79.80
2022-08-16T03:31:59.072Z,79.80
2022-08-16T03:34:26.395Z,79.80
2022-08-16T03:36:53.385Z,79.70
2022-08-16T03:39:20.361Z,79.70
2022-08-16T03:41:50.437Z,79.70
2022-08-16T03:44:44.495Z,80.30
2022-08-16T03:47:10.421Z,79.60
2022-08-16T03:49:37.513Z,79.60
2022-08-16T03:52:05.326Z,79.90
2022-08-16T03:54:32.066Z,79.40
2022-08-16T03:57:02.732Z,80.10
2022-08-16T03:59:32.291Z,79.50
2022-08-16T04:02:01.122Z,79.60
2022-08-16T04:04:33.414Z,79.40
2022-08-16T04:07:03.349Z,79.50
2022-08-16T04:09:31.355Z,79.40
2022-08-16T04:12:10.741Z,79.50
2022-08-16T04:14:38.310Z,79.40
2022-08-16T04:17:15.673Z,79.60
2022-08-16T04:19:45.726Z,79.50
2022-08-16T04:22:13.873Z,79.40
2022-08-16T04:24:54.390Z,79.50
2022-08-16T04:27:21.969Z,79.40
2022-08-16T04:29:52.147Z,79.80
2022-08-16T04:32:19.753Z,79.60
2022-08-16T04:34:46.693Z,79.60
2022-08-16T04:37:14.050Z,79.40
2022-08-16T04:39:47.219Z,80.10
2022-08-16T04:42:26.388Z,79.50
2022-08-16T04:44:58.591Z,79.40
2022-08-16T04:47:35.361Z,79.40
2022-08-16T04:50:04.874Z,79.40
2022-08-16T04:52:33.820Z,79.40
2022-08-16T04:55:11.741Z,79.40
2022-08-16T04:57:39.205Z,79.40
2022-08-16T05:00:31.880Z,79.40
2022-08-16T05:03:01.334Z,79.40
2022-08-16T05:05:32.668Z,79.40
2022-08-16T05:08:00.443Z,79.40
2022-08-16T05:10:28.543Z,79.50
2022-08-16T05:13:00.249Z,79.50
2022-08-16T05:15:26.979Z,79.50
2022-08-16T05:17:58.774Z,79.50
2022-08-16T05:20:35.134Z,79.50
2022-08-16T05:23:12.120Z,79.50
2022-08-16T05:25:48.216Z,79.50
2022-08-16T05:28:16.604Z,79.50
2022-08-16T05:30:43.431Z,79.50
2022-08-16T05:33:16.910Z,79.50
2022-08-16T05:35:54.753Z,79.60
2022-08-16T05:38:32.744Z,79.60
2022-08-16T05:41:13.725Z,79.60
2022-08-16T05:43:46.311Z,79.70
2022-08-16T05:46:30.628Z,79.60
2022-08-16T05:49:03.148Z,79.60
2022-08-16T05:51:38.902Z,79.60
2022-08-16T05:54:11.468Z,79.70
2022-08-16T05:56:41.098Z,79.70
2022-08-16T05:59:09.734Z,79.80
2022-08-16T06:01:38.785Z,79.80
2022-08-16T06:04:13.587Z,80.10
2022-08-16T06:06:55.990Z,79.90
2022-08-16T06:09:24.170Z,80.00
2022-08-16T06:11:51.060Z,80.60
2022-08-16T06:14:18.394Z,80.10
2022-08-16T06:16:50.888Z,80.10
2022-08-16T06:19:18.059Z,80.10
2022-08-16T06:21:45.074Z,80.10
2022-08-16T06:24:54.126Z,80.20
2022-08-16T06:26:58.648Z,80.30
2022-08-16T06:29:25.347Z,80.50
2022-08-16T06:31:53.715Z,80.80
2022-08-16T06:34:56.081Z,81.10
2022-08-16T06:37:09.792Z,81.10
2022-08-16T06:39:49.596Z,81.20
2022-08-16T06:42:18.432Z,81.10
2022-08-16T06:44:45.971Z,81.30
2022-08-16T06:47:17.042Z,81.50
2022-08-16T06:49:54.098Z,81.40
2022-08-16T06:52:57.338Z,81.10
2022-08-16T06:55:13.036Z,81.20
2022-08-16T06:57:40.981Z,81.20
2022-08-16T07:00:13.072Z,80.90
2022-08-16T07:02:52.983Z,80.90
2022-08-16T07:05:19.963Z,80.80
2022-08-16T07:07:54.089Z,80.90
2022-08-16T07:10:25.772Z,81.10
2022-08-16T07:13:04.162Z,80.90
2022-08-16T07:15:35.252Z,80.90
2022-08-16T07:18:01.933Z,81.30
2022-08-16T07:20:35.930Z,81.20
2022-08-16T07:23:15.076Z,81.00
2022-08-16T07:25:42.039Z,81.50
2022-08-16T07:28:11.992Z,80.70
2022-08-16T07:30:45.489Z,80.60
2022-08-16T07:33:15.848Z,80.60
2022-08-16T07:35:49.549Z,80.60
2022-08-16T07:38:19.641Z,80.60
2022-08-16T07:41:00.350Z,80.30
2022-08-16T07:43:28.797Z,80.70
2022-08-16T07:45:56.226Z,80.40
2022-08-16T07:48:24.150Z,80.30
2022-08-16T07:50:57.033Z,80.40
2022-08-16T07:53:29.032Z,80.20
2022-08-16T07:55:56.810Z,80.20
2022-08-16T07:58:33.704Z,80.20
2022-08-16T08:01:10.037Z,80.10
2022-08-16T08:03:39.380Z,80.30
2022-08-16T08:06:10.395Z,80.20
2022-08-16T08:08:50.642Z,80.30
2022-08-16T08:11:19.520Z,80.30
2022-08-16T08:13:48.714Z,80.30
2022-08-16T08:16:19.165Z,80.20
2022-08-16T08:18:50.221Z,80.30
2022-08-16T08:21:19.398Z,80.30
2022-08-16T08:23:54.066Z,80.10
2022-08-16T08:26:22.194Z,80.30
2022-08-16T08:28:51.159Z,81.10
2022-08-16T08:31:18.674Z,80.20
2022-08-16T08:33:47.525Z,80.20
2022-08-16T08:36:23.974Z,80.10
2022-08-16T08:39:00.091Z,80.20
2022-08-16T08:41:29.321Z,80.30
2022-08-16T08:43:57.727Z,80.20
2022-08-16T08:46:25.501Z,80.10
2022-08-16T08:49:02.169Z,80.10
2022-08-16T08:51:35.546Z,80.10
2022-08-16T08:54:06.987Z,80.10
2022-08-16T08:56:37.573Z,80.30
2022-08-16T08:59:13.620Z,80.30
2022-08-16T09:01:57.732Z,80.10
2022-08-16T09:04:25.833Z,80.20
2022-08-16T09:06:53.944Z,80.10
2022-08-16T09:09:21.469Z,80.10
2022-08-16T09:11:53.493Z,80.10
2022-08-16T09:14:25.252Z,80.20
2022-08-16T09:17:01.366Z,80.20
2022-08-16T09:19:37.121Z,80.20
2022-08-16T09:22:07.806Z,80.30
2022-08-16T09:24:52.285Z,80.30
2022-08-16T09:27:21.420Z,80.30
2022-08-16T09:30:00.327Z,81.70
2022-08-16T09:32:30.701Z,80.10
2022-08-16T09:34:58.938Z,80.30
2022-08-16T09:37:29.638Z,80.20
2022-08-16T09:39:57.634Z,80.30
2022-08-16T09:42:28.479Z,80.20
2022-08-16T09:45:12.445Z,80.20
2022-08-16T09:47:56.651Z,80.20
2022-08-16T09:50:33.218Z,80.20
2022-08-16T09:53:06.318Z,80.30
2022-08-16T09:55:33.952Z,80.30
2022-08-16T09:58:14.894Z,80.30
2022-08-16T10:00:58.110Z,80.30
2022-08-16T10:03:30.541Z,80.40
2022-08-16T10:05:57.392Z,80.30
2022-08-16T10:08:25.979Z,80.20
2022-08-16T10:11:12.297Z,80.30
2022-08-16T10:13:39.658Z,80.40
2022-08-16T10:18:56.598Z,80.40
2022-08-16T10:21:23.846Z,80.30
2022-08-16T10:23:53.621Z,80.30
2022-08-16T10:27:19.482Z,80.30
2022-08-16T10:29:11.844Z,80.30
2022-08-16T10:31:46.783Z,80.30
2022-08-16T10:34:31.434Z,80.30
2022-08-16T10:37:00.009Z,80.40
2022-08-16T10:39:27.075Z,80.40
2022-08-16T10:42:07.964Z,80.40
2022-08-16T10:44:34.846Z,80.50
2022-08-16T10:47:02.241Z,80.40
2022-08-16T10:49:29.619Z,80.40
2022-08-16T10:52:03.059Z,80.50
2022-08-16T10:54:59.183Z,80.40
2022-08-16T10:57:28.037Z,80.40
2022-08-16T10:59:59.888Z,80.40
2022-08-16T11:03:00.635Z,80.30
2022-08-16T11:05:16.395Z,80.40
2022-08-16T11:07:51.951Z,80.30
2022-08-16T11:16:00.784Z,80.30
2022-08-16T11:18:36.684Z,80.30
2022-08-16T11:21:28.672Z,80.30
2022-08-16T11:23:58.685Z,80.30
2022-08-16T11:26:26.033Z,80.20
2022-08-16T11:31:39.906Z,80.20
2022-08-16T11:34:13.151Z,80.30
2022-08-16T11:36:53.645Z,80.30
2022-08-16T11:39:34.268Z,80.20
2022-08-16T11:42:01.779Z,80.10
2022-08-16T11:44:52.067Z,80.10
2022-08-16T11:47:15.973Z,80.00
2022-08-16T11:49:42.655Z,80.10
2022-08-16T11:52:09.512Z,80.20
2022-08-16T11:54:36.762Z,80.10
2022-08-16T11:57:04.442Z,80.20
2022-08-16T11:59:39.820Z,80.00
2022-08-16T12:02:31.303Z,80.10
2022-08-16T12:04:54.664Z,80.10
2022-08-16T12:07:23.561Z,80.10
2022-08-16T12:09:53.077Z,80.10
2022-08-16T12:12:20.622Z,80.30
2022-08-16T12:14:53.333Z,80.20
2022-08-16T12:17:27.994Z,80.20
2022-08-16T12:19:58.496Z,80.30
2022-08-16T12:22:25.212Z,80.30
2022-08-16T12:24:52.774Z,80.30
2022-08-16T12:27:24.062Z,80.40
2022-08-16T12:29:52.585Z,80.50
2022-08-16T12:32:36.072Z,80.40
2022-08-16T12:35:12.224Z,80.40
2022-08-16T12:37:41.625Z,80.40
2022-08-16T12:40:17.230Z,80.10
2022-08-16T12:42:52.338Z,79.70
2022-08-16T12:45:20.966Z,79.60
2022-08-16T12:48:32.777Z,79.40
2022-08-16T12:50:54.384Z,79.50
2022-08-16T12:53:41.616Z,79.30
2022-08-16T12:56:11.364Z,79.50
2022-08-16T12:58:49.858Z,79.70
2022-08-16T13:01:18.780Z,79.50
2022-08-16T13:03:45.602Z,79.30
2022-08-16T13:06:13.268Z,79.30
2022-08-16T13:08:46.765Z,79.40
2022-08-16T13:11:14.475Z,79.20
2022-08-16T13:13:44.488Z,79.20
2022-08-16T13:16:20.104Z,79.20
2022-08-16T13:18:52.623Z,79.20
2022-08-16T13:21:23.445Z,79.20
2022-08-16T13:23:50.301Z,79.20
2022-08-16T13:26:20.119Z,79.20
2022-08-16T13:28:47.867Z,79.30
2022-08-16T13:31:16.222Z,79.30
2022-08-16T13:33:43.977Z,79.30
2022-08-16T13:36:21.302Z,79.40
2022-08-16T13:38:52.975Z,79.20
2022-08-16T13:41:21.072Z,79.20
2022-08-16T13:43:57.474Z,79.20
2022-08-16T13:46:24.856Z,79.20
2022-08-16T13:48:53.045Z,79.30
2022-08-16T13:51:20.849Z,79.30
2022-08-16T13:53:54.331Z,79.20
2022-08-16T13:56:25.952Z,79.30
2022-08-16T13:59:04.175Z,79.30
2022-08-16T14:01:32.931Z,79.20
2022-08-16T14:04:03.714Z,79.20
2022-08-16T14:06:31.235Z,79.20
2022-08-16T14:08:59.202Z,79.30
2022-08-16T14:11:33.787Z,79.20
2022-08-16T14:14:00.419Z,79.30
2022-08-16T14:16:33.930Z,79.20
2022-08-16T14:19:02.175Z,79.20
2022-08-16T14:21:34.779Z,79.20
2022-08-16T14:24:12.927Z,79.30
2022-08-16T14:26:50.635Z,79.40
2022-08-16T14:29:19.931Z,79.30
2022-08-16T14:31:46.867Z,79.80
2022-08-16T14:34:20.838Z,79.20
2022-08-16T14:36:52.128Z,79.20
2022-08-16T14:39:21.975Z,79.20
2022-08-16T14:41:49.079Z,79.30
2022-08-16T14:44:20.276Z,79.40
2022-08-16T14:46:47.531Z,79.40
2022-08-16T14:49:14.560Z,79.40
2022-08-16T14:51:46.135Z,79.40
2022-08-16T14:54:15.133Z,79.40
2022-08-16T14:56:46.712Z,79.30
2022-08-16T14:59:13.752Z,79.30
2022-08-16T15:01:59.875Z,79.30
2022-08-16T15:04:39.694Z,79.30
2022-08-16T15:07:15.634Z,79.30
2022-08-16T15:10:00.739Z,79.30
2022-08-16T15:12:31.077Z,79.30
2022-08-16T15:15:00.577Z,79.20
2022-08-16T15:17:33.925Z,79.20
2022-08-16T15:20:08.669Z,79.20
2022-08-16T15:22:37.573Z,79.30
2022-08-16T15:25:19.322Z,79.20
2022-08-16T15:27:47.614Z,79.30
2022-08-16T15:30:56.425Z,79.20
2022-08-16T15:33:25.450Z,79.20
2022-08-16T15:35:52.726Z,79.20
2022-08-16T15:38:54.603Z,79.20
2022-08-16T15:41:09.509Z,79.80
2022-08-16T15:43:40.431Z,79.10
2022-08-16T15:46:35.451Z,79.20
2022-08-16T15:49:09.715Z,79.20
2022-08-16T15:51:39.249Z,79.40
2022-08-16T15:54:29.236Z,79.30
2022-08-16T15:56:55.293Z,79.40
2022-08-16T15:59:27.029Z,79.50
2022-08-16T16:01:54.751Z,79.50
2022-08-16T16:04:23.345Z,79.60
2022-08-16T16:06:54.866Z,79.50
2022-08-16T16:09:26.105Z,79.60
2022-08-16T16:12:08.738Z,79.60
2022-08-16T16:14:43.222Z,79.60
2022-08-16T16:17:13.474Z,79.50
2022-08-16T16:19:43.360Z,79.60
2022-08-16T16:22:10.047Z,79.60
2022-08-16T16:24:37.148Z,79.70
2022-08-16T16:27:05.531Z,79.90
2022-08-16T16:29:37.120Z,80.60
2022-08-16T16:32:08.356Z,80.00
2022-08-16T16:34:35.631Z,79.60
2022-08-16T16:37:02.689Z,79.60
2022-08-16T16:39:32.649Z,79.60
2022-08-16T16:41:59.989Z,79.60
2022-08-16T16:44:33.844Z,79.60
2022-08-16T16:47:03.474Z,79.50
2022-08-16T16:49:30.228Z,79.60
2022-08-16T16:52:06.545Z,79.60
2022-08-16T16:54:35.014Z,79.50
2022-08-16T16:57:02.266Z,79.60
2022-08-16T16:59:29.178Z,79.60
2022-08-16T17:02:01.534Z,79.60
2022-08-16T17:04:45.502Z,79.50
2022-08-16T17:07:14.301Z,79.60
2022-08-16T17:09:41.485Z,79.60
2022-08-16T17:12:09.140Z,79.60
2022-08-16T17:14:35.885Z,79.60
2022-08-16T17:17:08.616Z,79.70
2022-08-16T17:19:40.833Z,79.60
2022-08-16T17:22:14.273Z,79.60
2022-08-16T17:24:45.329Z,79.70
2022-08-16T17:27:17.987Z,79.70
2022-08-16T17:29:51.597Z,79.70
2022-08-16T17:32:33.576Z,79.70
2022-08-16T17:35:18.471Z,79.50
2022-08-16T17:39:27.327Z,79.60
2022-08-16T17:40:47.004Z,79.60
2022-08-16T17:43:20.836Z,79.60
2022-08-16T17:45:47.878Z,79.60
2022-08-16T17:48:14.581Z,79.60
2022-08-16T17:50:41.737Z,79.70
2022-08-16T17:53:09.879Z,79.70
2022-08-16T17:55:37.975Z,79.70
2022-08-16T17:58:20.046Z,79.70
2022-08-16T18:00:52.230Z,79.80
2022-08-16T18:03:40.684Z,79.80
2022-08-16T18:06:10.994Z,79.80
2022-08-16T18:08:37.955Z,79.90
2022-08-16T18:11:06.793Z,79.90
2022-08-16T18:13:34.699Z,79.70
2022-08-16T18:16:01.549Z,79.40
2022-08-16T18:18:28.241Z,79.00
2022-08-16T18:21:13.211Z,78.70
2022-08-16T18:23:39.906Z,78.80
2022-08-16T18:26:07.530Z,78.70
2022-08-16T18:28:35.015Z,78.50
2022-08-16T18:31:05.513Z,78.50
2022-08-16T18:33:33.655Z,78.40
2022-08-16T18:36:21.136Z,78.40
2022-08-16T18:38:49.045Z,78.20
2022-08-16T18:41:15.898Z,78.30
2022-08-16T18:44:23.787Z,78.30
2022-08-16T18:46:29.511Z,78.10
2022-08-16T18:48:56.142Z,78.20
2022-08-16T18:51:25.215Z,78.20
2022-08-16T18:53:52.796Z,78.20
2022-08-16T18:56:19.718Z,78.10
2022-08-16T18:58:46.433Z,78.10
2022-08-16T19:01:13.473Z,78.10
2022-08-16T19:03:40.256Z,78.00
2022-08-16T19:06:11.428Z,78.00
2022-08-16T19:08:40.493Z,78.00
2022-08-16T19:11:08.746Z,78.00
2022-08-16T19:13:35.537Z,78.00
2022-08-16T19:16:03.818Z,77.90
2022-08-16T19:18:36.582Z,77.70
2022-08-16T19:21:04.574Z,77.80
2022-08-16T19:23:34.441Z,77.90
2022-08-16T19:26:24.566Z,77.90
2022-08-16T19:28:58.524Z,77.80
2022-08-16T19:31:28.952Z,77.60
2022-08-16T19:33:56.789Z,77.70
2022-08-16T19:36:31.549Z,77.60
2022-08-16T19:39:04.779Z,77.70
2022-08-16T19:41:32.900Z,77.70
2022-08-16T19:43:59.583Z,77.70
2022-08-16T19:46:26.289Z,77.80
2022-08-16T19:48:52.946Z,77.80
2022-08-16T19:51:19.627Z,77.90
2022-08-16T19:53:46.281Z,77.80
2022-08-16T19:56:13.174Z,78.30
2022-08-16T19:58:56.062Z,77.80
2022-08-16T20:01:26.578Z,77.70
2022-08-16T20:03:53.264Z,77.70
2022-08-16T20:06:37.782Z,77.70
2022-08-16T20:09:05.788Z,77.80
2022-08-16T20:11:32.495Z,78.00
2022-08-16T20:13:59.496Z,77.90
2022-08-16T20:16:26.489Z,77.90
2022-08-16T20:18:53.177Z,77.90
2022-08-16T20:21:19.851Z,77.80
2022-08-16T20:23:46.567Z,77.80
2022-08-16T20:26:13.260Z,77.80
2022-08-16T20:28:53.867Z,77.60
2022-08-16T20:31:22.391Z,77.50
2022-08-16T20:33:51.047Z,77.70
2022-08-16T20:36:17.776Z,77.80
2022-08-16T20:38:47.375Z,77.90
2022-08-16T20:41:14.876Z,77.90
2022-08-16T20:43:41.699Z,77.90
2022-08-16T20:46:08.396Z,77.80
2022-08-16T20:48:35.790Z,77.90
2022-08-16T20:51:02.443Z,78.00
2022-08-16T20:53:29.086Z,78.20
2022-08-16T20:55:56.338Z,78.30
2022-08-16T20:58:23.027Z,78.30
2022-08-16T21:00:50.211Z,78.30
2022-08-16T21:03:16.946Z,78.20
2022-08-16T21:05:46.595Z,78.10
2022-08-16T21:08:50.905Z,78.20
2022-08-16T21:11:02.240Z,78.30
2022-08-16T21:13:30.954Z,78.30
2022-08-16T21:15:58.076Z,78.40
2022-08-16T21:18:25.051Z,78.40
2022-08-16T21:20:52.012Z,78.50
2022-08-16T21:23:18.762Z,78.50
2022-08-16T21:25:57.756Z,78.60
2022-08-16T21:28:40.335Z,78.50
2022-08-16T21:31:09.915Z,78.40
2022-08-16T21:33:36.670Z,78.30
2022-08-16T21:36:03.566Z,78.40
2022-08-16T21:38:31.231Z,78.40
2022-08-16T21:40:58.840Z,78.60
2022-08-16T21:43:25.567Z,78.60
2022-08-16T21:45:54.959Z,78.60
2022-08-16T21:48:34.671Z,78.70
2022-08-16T21:51:06.093Z,78.80
2022-08-16T21:53:32.918Z,78.90
2022-08-16T21:56:00.471Z,79.00
2022-08-16T21:58:27.219Z,79.00
2022-08-16T22:00:54.042Z,79.10
2022-08-16T22:03:21.171Z,79.00
2022-08-16T22:06:11.546Z,78.90
2022-08-16T22:08:39.423Z,78.90
2022-08-16T22:11:17.302Z,78.80
2022-08-16T22:13:49.179Z,78.90
2022-08-16T22:16:26.053Z,79.10
2022-08-16T22:18:52.769Z,79.10
2022-08-16T22:21:19.743Z,79.20
2022-08-16T22:23:56.919Z,79.00
2022-08-16T22:26:29.991Z,79.30
2022-08-16T22:28:58.101Z,79.40
2022-08-16T22:31:25.384Z,79.40
2022-08-16T22:33:52.033Z,79.40
2022-08-16T22:36:18.743Z,79.20
2022-08-16T22:38:56.210Z,79.20
2022-08-16T22:41:24.213Z,79.20
2022-08-16T22:43:50.911Z,79.20
2022-08-16T22:46:18.711Z,79.10
2022-08-16T22:48:45.739Z,79.20
2022-08-16T22:51:14.166Z,79.20
2022-08-16T22:53:41.383Z,80.00
2022-08-16T22:56:08.333Z,79.30
2022-08-16T22:58:36.736Z,79.30
2022-08-16T23:01:08.317Z,79.40
2022-08-16T23:03:36.010Z,79.30
2022-08-16T23:06:03.455Z,79.30
2022-08-16T23:08:33.666Z,79.30
2022-08-16T23:11:07.445Z,79.30
2022-08-16T23:13:34.109Z,79.30
2022-08-16T23:16:11.056Z,79.40
2022-08-16T23:18:38.946Z,79.30
2022-08-16T23:21:07.757Z,79.30
2022-08-16T23:23:34.432Z,79.40
2022-08-16T23:26:01.221Z,79.40
2022-08-16T23:28:30.413Z,79.20
2022-08-16T23:30:57.795Z,79.30
2022-08-16T23:33:25.170Z,79.20
2022-08-16T23:35:54.337Z,79.00
2022-08-16T23:38:38.439Z,79.00
2022-08-16T23:41:09.326Z,79.00
2022-08-16T23:43:44.546Z,79.00
2022-08-16T23:46:15.012Z,79.00
2022-08-16T23:49:59.064Z,78.80
2022-08-16T23:51:29.825Z,78.90
2022-08-16T23:53:56.485Z,78.90
2022-08-16T23:56:23.213Z,78.80
2022-08-16T23:58:54.306Z,78.80
